﻿<?xml version="1.0" encoding="UTF-8"?>
<gpx xmlns="http://www.topografix.com/GPX/1/1" creator="ape@map" version="1.1" xmlns:xsi="http://www.w3.org/2001/XMLSchema-instance" xmlns:dklgpx="http://na.na.na/GPX/1/1" xsi:schemaLocation="http://www.topografix.com/GPX/1/1 http://www.topografix.com/GPX/1/1/gpx.xsd">
<metadata>
   <name>ape@map my Phone my Guide</name>
</metadata>
<trk>
   <name>2024-09-10_KW-Steinau_Nordroute_7,2km</name>
   <trkseg>
      <trkpt lon="9.4845807552" lat="50.29385976">
          <ele>363</ele>
          <time>2024-09-10T12:57:43Z</time>
      </trkpt>
      <trkpt lon="9.484343" lat="50.293803">
          <ele>360.619909</ele>
          <time>2024-09-10T12:58:03Z</time>
      </trkpt>
      <trkpt lon="9.483825" lat="50.293665">
          <ele>360.619909</ele>
          <time>2024-09-10T12:58:40Z</time>
      </trkpt>
      <trkpt lon="9.48357" lat="50.293563">
          <ele>360.619909</ele>
          <time>2024-09-10T12:58:59Z</time>
      </trkpt>
      <trkpt lon="9.483426" lat="50.29343">
          <ele>360.535965</ele>
          <time>2024-09-10T12:59:16Z</time>
      </trkpt>
      <trkpt lon="9.483023" lat="50.292759">
          <ele>357.334434</ele>
          <time>2024-09-10T13:00:31Z</time>
      </trkpt>
      <trkpt lon="9.482774" lat="50.292473">
          <ele>355.876595</ele>
          <time>2024-09-10T13:01:07Z</time>
      </trkpt>
      <trkpt lon="9.482585" lat="50.292402">
          <ele>355.252618</ele>
          <time>2024-09-10T13:01:23Z</time>
      </trkpt>
      <trkpt lon="9.482122" lat="50.292527">
          <ele>353.822132</ele>
          <time>2024-09-10T13:01:59Z</time>
      </trkpt>
      <trkpt lon="9.481516" lat="50.292746">
          <ele>350.876346</ele>
          <time>2024-09-10T13:02:50Z</time>
      </trkpt>
      <trkpt lon="9.481306" lat="50.292892">
          <ele>348.882419</ele>
          <time>2024-09-10T13:03:13Z</time>
      </trkpt>
      <trkpt lon="9.480851" lat="50.29332">
          <ele>343.679631</ele>
          <time>2024-09-10T13:04:15Z</time>
      </trkpt>
      <trkpt lon="9.480643" lat="50.293437">
          <ele>341.899204</ele>
          <time>2024-09-10T13:04:37Z</time>
      </trkpt>
      <trkpt lon="9.479855" lat="50.29376">
          <ele>335.884383</ele>
          <time>2024-09-10T13:05:50Z</time>
      </trkpt>
      <trkpt lon="9.479498" lat="50.293962">
          <ele>332.898513</ele>
          <time>2024-09-10T13:06:27Z</time>
      </trkpt>
      <trkpt lon="9.478982" lat="50.294335">
          <ele>328.121972</ele>
          <time>2024-09-10T13:07:27Z</time>
      </trkpt>
      <trkpt lon="9.478713" lat="50.294429">
          <ele>326.242429</ele>
          <time>2024-09-10T13:07:51Z</time>
      </trkpt>
      <trkpt lon="9.477358" lat="50.294792">
          <ele>317.244032</ele>
          <time>2024-09-10T13:09:41Z</time>
      </trkpt>
      <trkpt lon="9.477093" lat="50.294893">
          <ele>315.972881</ele>
          <time>2024-09-10T13:10:04Z</time>
      </trkpt>
      <trkpt lon="9.476416111" lat="50.2953676425">
          <ele>322</ele>
      </trkpt>
      <trkpt lon="9.4760298729" lat="50.2956075285">
          <ele>322</ele>
      </trkpt>
      <trkpt lon="9.475987" lat="50.295662">
          <ele>309.238952</ele>
          <time>2024-09-10T13:12:04Z</time>
      </trkpt>
      <trkpt lon="9.4761049747" lat="50.2957377518">
          <ele>318</ele>
      </trkpt>
      <trkpt lon="9.47644" lat="50.29586">
          <ele>306.977931</ele>
          <time>2024-09-10T13:12:42Z</time>
      </trkpt>
      <trkpt lon="9.476601" lat="50.295955">
          <ele>306.075102</ele>
          <time>2024-09-10T13:12:58Z</time>
      </trkpt>
      <trkpt lon="9.47713" lat="50.296407">
          <ele>304.228688</ele>
          <time>2024-09-10T13:13:58Z</time>
      </trkpt>
      <trkpt lon="9.477302" lat="50.296511">
          <ele>303.795023</ele>
          <time>2024-09-10T13:14:14Z</time>
      </trkpt>
      <trkpt lon="9.478084" lat="50.296781">
          <ele>302.167322</ele>
          <time>2024-09-10T13:15:14Z</time>
      </trkpt>
      <trkpt lon="9.47827" lat="50.296889">
          <ele>301.707066</ele>
          <time>2024-09-10T13:15:31Z</time>
      </trkpt>
      <trkpt lon="9.478464" lat="50.297078">
          <ele>301.05923</ele>
          <time>2024-09-10T13:15:54Z</time>
      </trkpt>
      <trkpt lon="9.4786959887" lat="50.2972866965">
          <ele>303</ele>
      </trkpt>
      <trkpt lon="9.47886765" lat="50.2976088158">
          <ele>301</ele>
      </trkpt>
      <trkpt lon="9.4791519642" lat="50.2980063218">
          <ele>300</ele>
      </trkpt>
      <trkpt lon="9.479363" lat="50.298291">
          <ele>298.488087</ele>
          <time>2024-09-10T13:18:14Z</time>
      </trkpt>
      <trkpt lon="9.479415" lat="50.298361">
          <ele>298.351977</ele>
          <time>2024-09-10T13:18:22Z</time>
      </trkpt>
      <trkpt lon="9.479645" lat="50.298528">
          <ele>297.961238</ele>
          <time>2024-09-10T13:18:46Z</time>
      </trkpt>
      <trkpt lon="9.479344" lat="50.298849">
          <ele>297.385625</ele>
          <time>2024-09-10T13:19:24Z</time>
      </trkpt>
      <trkpt lon="9.478901" lat="50.299172">
          <ele>298.028931</ele>
          <time>2024-09-10T13:20:08Z</time>
      </trkpt>
      <trkpt lon="9.4788515568" lat="50.2992570732">
          <ele>295</ele>
          <time>2024-09-10T13:20:19Z</time>
      </trkpt>
      <trkpt lon="9.4789159298" lat="50.2992742066">
          <ele>295</ele>
      </trkpt>
      <trkpt lon="9.480302" lat="50.299282">
          <ele>299.625309</ele>
          <time>2024-09-10T13:21:59Z</time>
      </trkpt>
      <trkpt lon="9.480646" lat="50.299275">
          <ele>299.95466</ele>
          <time>2024-09-10T13:22:25Z</time>
      </trkpt>
      <trkpt lon="9.481792" lat="50.299253">
          <ele>304.214678</ele>
          <time>2024-09-10T13:23:53Z</time>
      </trkpt>
      <trkpt lon="9.482066" lat="50.299284">
          <ele>305.315409</ele>
          <time>2024-09-10T13:24:14Z</time>
      </trkpt>
      <trkpt lon="9.482529" lat="50.299374">
          <ele>307.229819</ele>
          <time>2024-09-10T13:24:53Z</time>
      </trkpt>
      <trkpt lon="9.483374" lat="50.299675">
          <ele>311.056962</ele>
          <time>2024-09-10T13:26:10Z</time>
      </trkpt>
      <trkpt lon="9.483578" lat="50.299733">
          <ele>311.920753</ele>
          <time>2024-09-10T13:26:27Z</time>
      </trkpt>
      <trkpt lon="9.484087" lat="50.299826">
          <ele>313.961194</ele>
          <time>2024-09-10T13:27:09Z</time>
      </trkpt>
      <trkpt lon="9.484599" lat="50.300026">
          <ele>316.27425</ele>
          <time>2024-09-10T13:27:56Z</time>
      </trkpt>
      <trkpt lon="9.4848650694" lat="50.3000623341">
          <ele>324</ele>
          <time>2024-09-10T13:28:23Z</time>
      </trkpt>
      <trkpt lon="9.4848704338" lat="50.3001171599">
          <ele>323</ele>
      </trkpt>
      <trkpt lon="9.484761" lat="50.300233">
          <ele>318.75754</ele>
          <time>2024-09-10T13:28:46Z</time>
      </trkpt>
      <trkpt lon="9.485259" lat="50.300548">
          <ele>321.458695</ele>
          <time>2024-09-10T13:29:39Z</time>
      </trkpt>
      <trkpt lon="9.485557" lat="50.300835">
          <ele>322.947672</ele>
          <time>2024-09-10T13:30:19Z</time>
      </trkpt>
      <trkpt lon="9.4860774279" lat="50.3011382784">
          <ele>325</ele>
      </trkpt>
      <trkpt lon="9.486718" lat="50.301463">
          <ele>326.514016</ele>
          <time>2024-09-10T13:32:09Z</time>
      </trkpt>
      <trkpt lon="9.487606" lat="50.302006">
          <ele>328.458393</ele>
          <time>2024-09-10T13:33:36Z</time>
      </trkpt>
      <trkpt lon="9.4877135754" lat="50.301946934">
          <ele>332</ele>
      </trkpt>
      <trkpt lon="9.4878423214" lat="50.3019606399">
          <ele>333</ele>
          <time>2024-09-10T13:33:53Z</time>
      </trkpt>
      <trkpt lon="9.4880408049" lat="50.3021285369">
          <ele>335</ele>
      </trkpt>
      <trkpt lon="9.4881641865" lat="50.3022416101">
          <ele>336</ele>
          <time>2024-09-10T13:34:37Z</time>
      </trkpt>
      <trkpt lon="9.488337" lat="50.302382">
          <ele>327.806402</ele>
          <time>2024-09-10T13:34:56Z</time>
      </trkpt>
      <trkpt lon="9.488327" lat="50.302484">
          <ele>327.719822</ele>
          <time>2024-09-10T13:35:07Z</time>
      </trkpt>
      <trkpt lon="9.488477" lat="50.302578">
          <ele>327.606114</ele>
          <time>2024-09-10T13:35:20Z</time>
      </trkpt>
      <trkpt lon="9.488527" lat="50.302578">
          <ele>327.579058</ele>
          <time>2024-09-10T13:35:24Z</time>
      </trkpt>
      <trkpt lon="9.488542" lat="50.302609">
          <ele>327.551571</ele>
          <time>2024-09-10T13:35:27Z</time>
      </trkpt>
      <trkpt lon="9.488673" lat="50.302642">
          <ele>327.475371</ele>
          <time>2024-09-10T13:35:36Z</time>
      </trkpt>
      <trkpt lon="9.488938" lat="50.302624">
          <ele>327.331168</ele>
          <time>2024-09-10T13:35:55Z</time>
      </trkpt>
      <trkpt lon="9.489165" lat="50.302691">
          <ele>327.195855</ele>
          <time>2024-09-10T13:36:12Z</time>
      </trkpt>
      <trkpt lon="9.489691" lat="50.302941">
          <ele>324.631969</ele>
          <time>2024-09-10T13:36:59Z</time>
      </trkpt>
      <trkpt lon="9.490175" lat="50.303054">
          <ele>322.066225</ele>
          <time>2024-09-10T13:37:37Z</time>
      </trkpt>
      <trkpt lon="9.49022" lat="50.303137">
          <ele>321.381537</ele>
          <time>2024-09-10T13:37:47Z</time>
      </trkpt>
      <trkpt lon="9.490168" lat="50.303282">
          <ele>320.221976</ele>
          <time>2024-09-10T13:38:05Z</time>
      </trkpt>
      <trkpt lon="9.4900256395" lat="50.3034305755">
          <ele>327</ele>
          <time>2024-09-10T13:38:29Z</time>
      </trkpt>
      <trkpt lon="9.490095377" lat="50.3034888238">
          <ele>325</ele>
      </trkpt>
      <trkpt lon="9.490309" lat="50.303534">
          <ele>317.195716</ele>
          <time>2024-09-10T13:38:50Z</time>
      </trkpt>
      <trkpt lon="9.490836" lat="50.303823">
          <ele>313.737442</ele>
          <time>2024-09-10T13:39:43Z</time>
      </trkpt>
      <trkpt lon="9.490607" lat="50.304184">
          <ele>310.70288</ele>
          <time>2024-09-10T13:40:29Z</time>
      </trkpt>
      <trkpt lon="9.49031" lat="50.30444">
          <ele>308.220917</ele>
          <time>2024-09-10T13:41:06Z</time>
      </trkpt>
      <trkpt lon="9.490202" lat="50.304503">
          <ele>307.493208</ele>
          <time>2024-09-10T13:41:17Z</time>
      </trkpt>
      <trkpt lon="9.489564" lat="50.304712">
          <ele>303.925817</ele>
          <time>2024-09-10T13:42:11Z</time>
      </trkpt>
      <trkpt lon="9.48931" lat="50.30476">
          <ele>302.607942</ele>
          <time>2024-09-10T13:42:31Z</time>
      </trkpt>
      <trkpt lon="9.488749" lat="50.304794">
          <ele>299.804276</ele>
          <time>2024-09-10T13:43:11Z</time>
      </trkpt>
      <trkpt lon="9.488697" lat="50.304853">
          <ele>299.276872</ele>
          <time>2024-09-10T13:43:18Z</time>
      </trkpt>
      <trkpt lon="9.488786" lat="50.30491">
          <ele>298.76785</ele>
          <time>2024-09-10T13:43:27Z</time>
      </trkpt>
      <trkpt lon="9.489264" lat="50.30507">
          <ele>296.821231</ele>
          <time>2024-09-10T13:44:05Z</time>
      </trkpt>
      <trkpt lon="9.489388" lat="50.30515">
          <ele>296.185477</ele>
          <time>2024-09-10T13:44:17Z</time>
      </trkpt>
      <trkpt lon="9.48946" lat="50.305408">
          <ele>294.705449</ele>
          <time>2024-09-10T13:44:46Z</time>
      </trkpt>
      <trkpt lon="9.4894248247" lat="50.3055000583">
          <ele>294</ele>
          <time>2024-09-10T13:45:00Z</time>
      </trkpt>
      <trkpt lon="9.489338994" lat="50.3055514516">
          <ele>294</ele>
          <time>2024-09-10T13:45:08Z</time>
      </trkpt>
      <trkpt lon="9.489311" lat="50.305596">
          <ele>293.24309</ele>
          <time>2024-09-10T13:45:15Z</time>
      </trkpt>
      <trkpt lon="9.489316" lat="50.305632">
          <ele>293.038981</ele>
          <time>2024-09-10T13:45:19Z</time>
      </trkpt>
      <trkpt lon="9.489538" lat="50.30571">
          <ele>292.125052</ele>
          <time>2024-09-10T13:45:37Z</time>
      </trkpt>
      <trkpt lon="9.489726" lat="50.305737">
          <ele>291.429998</ele>
          <time>2024-09-10T13:45:51Z</time>
      </trkpt>
      <trkpt lon="9.489913" lat="50.305764">
          <ele>290.738463</ele>
          <time>2024-09-10T13:46:05Z</time>
      </trkpt>
      <trkpt lon="9.490051" lat="50.305781">
          <ele>290.231519</ele>
          <time>2024-09-10T13:46:15Z</time>
      </trkpt>
      <trkpt lon="9.490191" lat="50.305808">
          <ele>289.704016</ele>
          <time>2024-09-10T13:46:26Z</time>
      </trkpt>
      <trkpt lon="9.4905030727" lat="50.3058632363">
          <ele>298</ele>
          <time>2024-09-10T13:46:58Z</time>
      </trkpt>
      <trkpt lon="9.4906586409" lat="50.3058906459">
          <ele>298</ele>
          <time>2024-09-10T13:46:59Z</time>
      </trkpt>
      <trkpt lon="9.4907015562" lat="50.3058700887">
          <ele>298</ele>
          <time>2024-09-10T13:46:59Z</time>
      </trkpt>
      <trkpt lon="9.4907766581" lat="50.3057775814">
          <ele>297</ele>
      </trkpt>
      <trkpt lon="9.4907981157" lat="50.3056987787">
          <ele>296</ele>
      </trkpt>
      <trkpt lon="9.4908678532" lat="50.3056268283">
          <ele>295</ele>
          <time>2024-09-10T13:47:28Z</time>
      </trkpt>
      <trkpt lon="9.4910609722" lat="50.3056199759">
          <ele>295</ele>
      </trkpt>
      <trkpt lon="9.4911307096" lat="50.3055788613">
          <ele>294</ele>
          <time>2024-09-10T13:47:48Z</time>
      </trkpt>
      <trkpt lon="9.4912219048" lat="50.3056268283">
          <ele>294</ele>
      </trkpt>
      <trkpt lon="9.491361" lat="50.305644">
          <ele>283.503604</ele>
          <time>2024-09-10T13:48:06Z</time>
      </trkpt>
      <trkpt lon="9.491735" lat="50.305661">
          <ele>281.861112</ele>
          <time>2024-09-10T13:48:33Z</time>
      </trkpt>
      <trkpt lon="9.4923108816" lat="50.3058324006">
          <ele>288</ele>
      </trkpt>
      <trkpt lon="9.4928902388" lat="50.3059763006">
          <ele>285</ele>
      </trkpt>
      <trkpt lon="9.4936305285" lat="50.3061955761">
          <ele>282</ele>
      </trkpt>
      <trkpt lon="9.494226" lat="50.306322">
          <ele>269.052913</ele>
          <time>2024-09-10T13:51:53Z</time>
      </trkpt>
      <trkpt lon="9.495253" lat="50.306653">
          <ele>263.2495</ele>
          <time>2024-09-10T13:53:18Z</time>
      </trkpt>
      <trkpt lon="9.495897" lat="50.306899">
          <ele>259.92614</ele>
          <time>2024-09-10T13:54:13Z</time>
      </trkpt>
      <trkpt lon="9.496382" lat="50.307234">
          <ele>256.893988</ele>
          <time>2024-09-10T13:55:05Z</time>
      </trkpt>
      <trkpt lon="9.497585" lat="50.30774">
          <ele>250.780177</ele>
          <time>2024-09-10T13:56:49Z</time>
      </trkpt>
      <trkpt lon="9.497742" lat="50.307945">
          <ele>249.702428</ele>
          <time>2024-09-10T13:57:14Z</time>
      </trkpt>
      <trkpt lon="9.497821" lat="50.308397">
          <ele>247.822704</ele>
          <time>2024-09-10T13:58:05Z</time>
      </trkpt>
      <trkpt lon="9.4978898764" lat="50.3087411532">
          <ele>253</ele>
      </trkpt>
      <trkpt lon="9.4978898764" lat="50.3088713406">
          <ele>253</ele>
      </trkpt>
      <trkpt lon="9.4978684187" lat="50.3090700469">
          <ele>252</ele>
          <time>2024-09-10T13:59:19Z</time>
      </trkpt>
      <trkpt lon="9.49786" lat="50.309227">
          <ele>244.359238</ele>
          <time>2024-09-10T13:59:36Z</time>
      </trkpt>
      <trkpt lon="9.498077631" lat="50.3092653265">
          <ele>247</ele>
      </trkpt>
      <trkpt lon="9.4982600212" lat="50.30929616">
          <ele>244</ele>
      </trkpt>
      <trkpt lon="9.498401" lat="50.309288">
          <ele>243.010852</ele>
          <time>2024-09-10T14:00:13Z</time>
      </trkpt>
      <trkpt lon="9.498537" lat="50.309263">
          <ele>243.104541</ele>
          <time>2024-09-10T14:00:22Z</time>
      </trkpt>
      <trkpt lon="9.498623" lat="50.309232">
          <ele>243.169916</ele>
          <time>2024-09-10T14:00:29Z</time>
      </trkpt>
      <trkpt lon="9.498896" lat="50.309137">
          <ele>243.375732</ele>
          <time>2024-09-10T14:00:49Z</time>
      </trkpt>
      <trkpt lon="9.4990754128" lat="50.3089946757">
          <ele>237</ele>
      </trkpt>
      <trkpt lon="9.499855" lat="50.308244">
          <ele>244.498201</ele>
          <time>2024-09-10T14:02:42Z</time>
      </trkpt>
      <trkpt lon="9.500218" lat="50.307638">
          <ele>245.647056</ele>
          <time>2024-09-10T14:03:56Z</time>
      </trkpt>
      <trkpt lon="9.500351" lat="50.307231">
          <ele>246.727917</ele>
          <time>2024-09-10T14:04:43Z</time>
      </trkpt>
      <trkpt lon="9.500492" lat="50.306552">
          <ele>248.508546</ele>
          <time>2024-09-10T14:05:57Z</time>
      </trkpt>
      <trkpt lon="9.500502" lat="50.306467">
          <ele>248.730141</ele>
          <time>2024-09-10T14:06:06Z</time>
      </trkpt>
      <trkpt lon="9.500897" lat="50.306222">
          <ele>249.656641</ele>
          <time>2024-09-10T14:06:43Z</time>
      </trkpt>
      <trkpt lon="9.5010441542" lat="50.3060345458">
          <ele>252</ele>
          <time>2024-09-10T14:07:10Z</time>
      </trkpt>
      <trkpt lon="9.5012372732" lat="50.3060551029">
          <ele>251</ele>
      </trkpt>
      <trkpt lon="9.5017415285" lat="50.3061167741">
          <ele>250</ele>
          <time>2024-09-10T14:07:56Z</time>
      </trkpt>
      <trkpt lon="9.5020419359" lat="50.306133905">
          <ele>249</ele>
      </trkpt>
      <trkpt lon="9.5022296906" lat="50.3061030694">
          <ele>248</ele>
      </trkpt>
      <trkpt lon="9.5022726059" lat="50.3060413982">
          <ele>248</ele>
          <time>2024-09-10T14:08:34Z</time>
      </trkpt>
      <trkpt lon="9.502153" lat="50.305677">
          <ele>253.895321</ele>
          <time>2024-09-10T14:09:23Z</time>
      </trkpt>
      <trkpt lon="9.501848" lat="50.305372">
          <ele>255.121204</ele>
          <time>2024-09-10T14:10:04Z</time>
      </trkpt>
      <trkpt lon="9.501743" lat="50.305001">
          <ele>257.089952</ele>
          <time>2024-09-10T14:10:49Z</time>
      </trkpt>
      <trkpt lon="9.501601" lat="50.304279">
          <ele>260.889846</ele>
          <time>2024-09-10T14:12:19Z</time>
      </trkpt>
      <trkpt lon="9.501518" lat="50.304245">
          <ele>261.218722</ele>
          <time>2024-09-10T14:12:26Z</time>
      </trkpt>
      <trkpt lon="9.501409" lat="50.304245">
          <ele>261.582272</ele>
          <time>2024-09-10T14:12:34Z</time>
      </trkpt>
      <trkpt lon="9.501049" lat="50.304344">
          <ele>262.889554</ele>
          <time>2024-09-10T14:13:03Z</time>
      </trkpt>
      <trkpt lon="9.500957" lat="50.304356">
          <ele>263.202737</ele>
          <time>2024-09-10T14:13:10Z</time>
      </trkpt>
      <trkpt lon="9.500818" lat="50.304339">
          <ele>263.674769</ele>
          <time>2024-09-10T14:13:21Z</time>
      </trkpt>
      <trkpt lon="9.500736" lat="50.304309">
          <ele>263.989956</ele>
          <time>2024-09-10T14:13:28Z</time>
      </trkpt>
      <trkpt lon="9.500676" lat="50.304251">
          <ele>264.216187</ele>
          <time>2024-09-10T14:13:36Z</time>
      </trkpt>
      <trkpt lon="9.500614" lat="50.304191">
          <ele>264.384698</ele>
          <time>2024-09-10T14:13:44Z</time>
      </trkpt>
      <trkpt lon="9.500571" lat="50.303966">
          <ele>264.916015</ele>
          <time>2024-09-10T14:14:09Z</time>
      </trkpt>
      <trkpt lon="9.499757" lat="50.303859">
          <ele>266.160242</ele>
          <time>2024-09-10T14:15:06Z</time>
      </trkpt>
      <trkpt lon="9.499313" lat="50.303918">
          <ele>266.839213</ele>
          <time>2024-09-10T14:15:37Z</time>
      </trkpt>
      <trkpt lon="9.499197" lat="50.303973">
          <ele>267.055504</ele>
          <time>2024-09-10T14:15:47Z</time>
      </trkpt>
      <trkpt lon="9.4984960556" lat="50.3044790333">
          <ele>264</ele>
      </trkpt>
      <trkpt lon="9.4983136654" lat="50.3046195112">
          <ele>264</ele>
      </trkpt>
      <trkpt lon="9.4981205463" lat="50.3047222996">
          <ele>265</ele>
          <time>2024-09-10T14:17:36Z</time>
      </trkpt>
      <trkpt lon="9.4980508089" lat="50.3046709055">
          <ele>266</ele>
      </trkpt>
      <trkpt lon="9.497948" lat="50.304462">
          <ele>270.945566</ele>
          <time>2024-09-10T14:18:08Z</time>
      </trkpt>
      <trkpt lon="9.497875" lat="50.30414">
          <ele>272.028658</ele>
          <time>2024-09-10T14:18:44Z</time>
      </trkpt>
      <trkpt lon="9.497783" lat="50.303686">
          <ele>273.552596</ele>
          <time>2024-09-10T14:19:37Z</time>
      </trkpt>
      <trkpt lon="9.497623" lat="50.303457">
          <ele>274.45633</ele>
          <time>2024-09-10T14:20:06Z</time>
      </trkpt>
      <trkpt lon="9.497209" lat="50.303063">
          <ele>277.414158</ele>
          <time>2024-09-10T14:21:04Z</time>
      </trkpt>
      <trkpt lon="9.495561" lat="50.301594">
          <ele>289.138784</ele>
          <time>2024-09-10T14:24:45Z</time>
      </trkpt>
      <trkpt lon="9.495451" lat="50.301555">
          <ele>289.712563</ele>
          <time>2024-09-10T14:24:55Z</time>
      </trkpt>
      <trkpt lon="9.4954007864" lat="50.3015083428">
          <ele>295</ele>
          <time>2024-09-10T14:25:00Z</time>
      </trkpt>
      <trkpt lon="9.495319" lat="50.301425">
          <ele>291.143888</ele>
          <time>2024-09-10T14:25:20Z</time>
      </trkpt>
      <trkpt lon="9.494979" lat="50.301148">
          <ele>293.6571</ele>
          <time>2024-09-10T14:26:04Z</time>
      </trkpt>
      <trkpt lon="9.49349" lat="50.300177">
          <ele>303.868714</ele>
          <time>2024-09-10T14:28:55Z</time>
      </trkpt>
      <trkpt lon="9.493427" lat="50.300142">
          <ele>304.288115</ele>
          <time>2024-09-10T14:29:02Z</time>
      </trkpt>
      <trkpt lon="9.493311" lat="50.300077">
          <ele>305.06322</ele>
          <time>2024-09-10T14:29:15Z</time>
      </trkpt>
      <trkpt lon="9.493168" lat="50.300068">
          <ele>305.785005</ele>
          <time>2024-09-10T14:29:26Z</time>
      </trkpt>
      <trkpt lon="9.493051" lat="50.30008">
          <ele>306.380238</ele>
          <time>2024-09-10T14:29:36Z</time>
      </trkpt>
      <trkpt lon="9.492809" lat="50.30018">
          <ele>307.828015</ele>
          <time>2024-09-10T14:29:59Z</time>
      </trkpt>
      <trkpt lon="9.492513" lat="50.300363">
          <ele>309.897221</ele>
          <time>2024-09-10T14:30:33Z</time>
      </trkpt>
      <trkpt lon="9.492325" lat="50.300538">
          <ele>311.566232</ele>
          <time>2024-09-10T14:31:00Z</time>
      </trkpt>
      <trkpt lon="9.492181" lat="50.300721">
          <ele>313.091831</ele>
          <time>2024-09-10T14:31:26Z</time>
      </trkpt>
      <trkpt lon="9.492056" lat="50.300979">
          <ele>314.946163</ele>
          <time>2024-09-10T14:32:00Z</time>
      </trkpt>
      <trkpt lon="9.492024" lat="50.301171">
          <ele>316.271895</ele>
          <time>2024-09-10T14:32:25Z</time>
      </trkpt>
      <trkpt lon="9.49209" lat="50.301389">
          <ele>317.796425</ele>
          <time>2024-09-10T14:32:53Z</time>
      </trkpt>
      <trkpt lon="9.4914793968" lat="50.3012445009">
          <ele>324</ele>
      </trkpt>
      <trkpt lon="9.4905620813" lat="50.3010252026">
          <ele>328</ele>
      </trkpt>
      <trkpt lon="9.4896769524" lat="50.3008093299">
          <ele>331</ele>
      </trkpt>
      <trkpt lon="9.4891941547" lat="50.3006722673">
          <ele>333</ele>
      </trkpt>
      <trkpt lon="9.4891297817" lat="50.3006311485">
          <ele>333</ele>
          <time>2024-09-10T14:36:59Z</time>
      </trkpt>
      <trkpt lon="9.4892156124" lat="50.3005077917">
          <ele>334</ele>
      </trkpt>
      <trkpt lon="9.4894301891" lat="50.3001617058">
          <ele>334</ele>
      </trkpt>
      <trkpt lon="9.490006" lat="50.299196">
          <ele>334.594586</ele>
          <time>2024-09-10T14:39:49Z</time>
      </trkpt>
      <trkpt lon="9.491096" lat="50.29793">
          <ele>337.929116</ele>
          <time>2024-09-10T14:42:24Z</time>
      </trkpt>
      <trkpt lon="9.49198" lat="50.296871">
          <ele>341.070725</ele>
          <time>2024-09-10T14:44:35Z</time>
      </trkpt>
      <trkpt lon="9.492918" lat="50.295835">
          <ele>345.840721</ele>
          <time>2024-09-10T14:46:51Z</time>
      </trkpt>
      <trkpt lon="9.4930028915" lat="50.2957377518">
          <ele>345</ele>
          <time>2024-09-10T14:47:07Z</time>
      </trkpt>
      <trkpt lon="9.4929653406" lat="50.295679494">
          <ele>345</ele>
      </trkpt>
      <trkpt lon="9.492337" lat="50.295415">
          <ele>348.785324</ele>
          <time>2024-09-10T14:48:13Z</time>
      </trkpt>
      <trkpt lon="9.491678" lat="50.295039">
          <ele>351.453004</ele>
          <time>2024-09-10T14:49:19Z</time>
      </trkpt>
      <trkpt lon="9.491375" lat="50.294838">
          <ele>352.794385</ele>
          <time>2024-09-10T14:49:51Z</time>
      </trkpt>
      <trkpt lon="9.491164" lat="50.294714">
          <ele>353.674799</ele>
          <time>2024-09-10T14:50:14Z</time>
      </trkpt>
      <trkpt lon="9.4908571243" lat="50.2945760102">
          <ele>365</ele>
      </trkpt>
      <trkpt lon="9.4903475046" lat="50.2944046594">
          <ele>370</ele>
      </trkpt>
      <trkpt lon="9.4901436567" lat="50.2943258379">
          <ele>372</ele>
          <time>2024-09-10T14:51:56Z</time>
      </trkpt>
      <trkpt lon="9.489985" lat="50.294263">
          <ele>357.788559</ele>
          <time>2024-09-10T14:51:57Z</time>
      </trkpt>
      <trkpt lon="9.4898432493" lat="50.2942058918">
          <ele>375</ele>
          <time>2024-09-10T14:52:02Z</time>
      </trkpt>
      <trkpt lon="9.489634037" lat="50.294133924">
          <ele>375</ele>
          <time>2024-09-10T14:52:20Z</time>
      </trkpt>
      <trkpt lon="9.489440918" lat="50.2940585291">
          <ele>376</ele>
          <time>2024-09-10T14:52:39Z</time>
      </trkpt>
      <trkpt lon="9.4891405106" lat="50.2939591447">
          <ele>377</ele>
          <time>2024-09-10T14:52:59Z</time>
      </trkpt>
      <trkpt lon="9.4889259338" lat="50.2938666141">
          <ele>377</ele>
          <time>2024-09-10T14:53:18Z</time>
      </trkpt>
      <trkpt lon="9.4886738062" lat="50.2937603752">
          <ele>376</ele>
          <time>2024-09-10T14:53:37Z</time>
      </trkpt>
      <trkpt lon="9.4882982969" lat="50.2936335735">
          <ele>374</ele>
          <time>2024-09-10T14:53:56Z</time>
      </trkpt>
      <trkpt lon="9.4882285595" lat="50.2936884067">
          <ele>373</ele>
      </trkpt>
      <trkpt lon="9.488175" lat="50.293865">
          <ele>359.279306</ele>
          <time>2024-09-10T14:54:16Z</time>
      </trkpt>
      <trkpt lon="9.488135" lat="50.294056">
          <ele>359.486476</ele>
          <time>2024-09-10T14:54:35Z</time>
      </trkpt>
      <trkpt lon="9.488144" lat="50.294115">
          <ele>359.550206</ele>
          <time>2024-09-10T14:54:41Z</time>
      </trkpt>
      <trkpt lon="9.4880622625" lat="50.2943806703">
          <ele>366</ele>
      </trkpt>
      <trkpt lon="9.4879549742" lat="50.2947028093">
          <ele>362</ele>
          <time>2024-09-10T14:55:45Z</time>
      </trkpt>
      <trkpt lon="9.4878262281" lat="50.2947405063">
          <ele>360</ele>
          <time>2024-09-10T14:56:01Z</time>
      </trkpt>
      <trkpt lon="9.4876331091" lat="50.2946925283">
          <ele>358</ele>
      </trkpt>
      <trkpt lon="9.4872951508" lat="50.2945897182">
          <ele>357</ele>
      </trkpt>
      <trkpt lon="9.4870001078" lat="50.2945828642">
          <ele>355</ele>
      </trkpt>
      <trkpt lon="9.486002326" lat="50.2942812865">
          <ele>354</ele>
      </trkpt>
      <trkpt lon="9.4853103161" lat="50.2940893725">
          <ele>357</ele>
      </trkpt>
      <trkpt lon="9.4846236706" lat="50.2938700412">
          <ele>362</ele>
          <time>2024-09-10T14:59:59Z</time>
      </trkpt>
   </trkseg>
</trk>
</gpx>
